createdAt,value
2023-03-14T00:00:21.287Z,75.52
2023-03-14T00:03:24.117Z,75.76
2023-03-14T00:06:26.975Z,75.46
2023-03-14T00:09:30.992Z,75.79
2023-03-14T00:12:33.680Z,75.86
2023-03-14T00:15:36.855Z,76.03
2023-03-14T00:18:40.147Z,76.23
2023-03-14T00:21:43.326Z,76.04
2023-03-14T00:24:45.804Z,75.99
2023-03-14T00:27:51.798Z,76.50
2023-03-14T00:30:55.936Z,76.81
2023-03-14T00:33:59.192Z,77.11
2023-03-14T00:37:01.747Z,76.97
2023-03-14T00:40:08.181Z,76.78
2023-03-14T00:43:11.225Z,77.09
2023-03-14T00:46:14.242Z,77.11
2023-03-14T00:49:16.898Z,77.16
2023-03-14T00:52:19.807Z,77.25
2023-03-14T00:55:22.613Z,76.91
2023-03-14T00:58:25.643Z,77.08
2023-03-14T01:01:28.564Z,76.53
2023-03-14T01:04:32.344Z,76.56
2023-03-14T01:07:35.092Z,77.08
2023-03-14T01:10:41.881Z,76.92
2023-03-14T01:13:44.643Z,76.51
2023-03-14T01:16:47.548Z,76.13
2023-03-14T01:19:50.255Z,75.54
2023-03-14T01:22:53.406Z,74.59
2023-03-14T01:25:56.135Z,74.35
2023-03-14T01:28:59.273Z,73.85
2023-03-14T01:32:01.895Z,74.78
2023-03-14T01:35:05.664Z,74.61
2023-03-14T01:38:08.621Z,75.49
2023-03-14T01:41:18.346Z,75.46
2023-03-14T01:44:21.198Z,75.47
2023-03-14T01:47:24.772Z,75.49
2023-03-14T01:50:28.446Z,73.99
2023-03-14T01:53:31.380Z,74.32
2023-03-14T01:56:34.327Z,74.52
2023-03-14T01:59:38.818Z,75.27
2023-03-14T02:02:44.371Z,75.21
2023-03-14T02:05:48.216Z,75.15
2023-03-14T02:08:51.964Z,75.07
2023-03-14T02:11:57.018Z,75.23
2023-03-14T02:14:59.821Z,75.63
2023-03-14T02:18:03.913Z,75.54
2023-03-14T02:21:15.349Z,74.80
2023-03-14T02:24:37.456Z,74.93
2023-03-14T02:27:40.608Z,74.31
2023-03-14T02:30:44.577Z,75.03
2023-03-14T02:33:48.542Z,74.99
2023-03-14T02:36:51.663Z,75.85
2023-03-14T02:39:55.060Z,75.66
2023-03-14T02:42:57.906Z,75.89
2023-03-14T02:46:02.792Z,76.50
2023-03-14T02:49:09.867Z,76.86
2023-03-14T02:52:13.654Z,76.07
2023-03-14T02:55:21.761Z,76.51
2023-03-14T02:58:25.223Z,76.59
2023-03-14T03:01:28.434Z,76.48
2023-03-14T03:04:31.014Z,75.90
2023-03-14T03:07:33.800Z,76.17
2023-03-14T03:10:36.596Z,75.59
2023-03-14T03:13:39.525Z,75.47
2023-03-14T03:16:42.792Z,75.09
2023-03-14T03:19:45.814Z,74.91
2023-03-14T03:22:49.774Z,74.73
2023-03-14T03:25:52.766Z,75.12
2023-03-14T03:28:55.441Z,74.95
2023-03-14T03:31:58.850Z,74.78
2023-03-14T03:35:03.968Z,75.47
2023-03-14T03:38:08.094Z,75.48
2023-03-14T03:41:11.068Z,75.94
2023-03-14T03:44:14.598Z,76.21
2023-03-14T03:47:17.376Z,76.25
2023-03-14T03:50:20.616Z,76.90
2023-03-14T03:53:33.110Z,77.05
2023-03-14T03:56:36.715Z,77.66
2023-03-14T03:59:41.155Z,77.89
2023-03-14T04:02:44.680Z,78.21
2023-03-14T04:05:48.050Z,79.01
2023-03-14T04:08:50.890Z,80.05
2023-03-14T04:11:55.958Z,80.25
2023-03-14T04:14:58.775Z,80.56
2023-03-14T04:18:01.715Z,81.57
2023-03-14T04:21:04.817Z,81.65
2023-03-14T04:24:08.021Z,82.07
2023-03-14T04:27:11.320Z,82.43
2023-03-14T04:30:14.862Z,83.05
2023-03-14T04:33:19.061Z,83.22
2023-03-14T04:36:22.536Z,83.59
2023-03-14T04:39:25.958Z,85.08
2023-03-14T04:42:29.393Z,84.15
2023-03-14T04:45:32.335Z,84.55
2023-03-14T04:48:35.594Z,85.19
2023-03-14T04:51:38.415Z,85.75
2023-03-14T04:54:41.637Z,86.05
2023-03-14T04:57:44.515Z,88.26
2023-03-14T05:00:48.060Z,87.65
2023-03-14T05:03:51.367Z,88.65
2023-03-14T05:06:54.570Z,87.84
2023-03-14T05:09:57.444Z,88.30
2023-03-14T05:13:01.038Z,88.40
2023-03-14T05:16:09.004Z,88.72
2023-03-14T05:19:14.715Z,89.03
2023-03-14T05:22:18.435Z,89.19
2023-03-14T05:25:22.542Z,89.60
2023-03-14T05:28:25.989Z,90.87
2023-03-14T05:31:29.466Z,90.23
2023-03-14T05:34:32.337Z,90.44
2023-03-14T05:37:37.496Z,90.96
2023-03-14T05:40:43.166Z,91.63
2023-03-14T05:43:46.365Z,90.79
2023-03-14T05:46:49.243Z,90.82
2023-03-14T05:49:52.705Z,90.96
2023-03-14T05:52:55.795Z,91.13
2023-03-14T05:55:59.496Z,91.15
2023-03-14T05:59:04.351Z,91.16
2023-03-14T06:02:07.994Z,92.24
2023-03-14T06:05:11.625Z,91.23
2023-03-14T06:08:16.294Z,92.15
2023-03-14T06:11:21.962Z,90.99
2023-03-14T06:14:24.617Z,91.09
2023-03-14T06:17:28.086Z,90.53
2023-03-14T06:20:34.331Z,90.86
2023-03-14T06:23:37.405Z,90.49
2023-03-14T06:26:40.569Z,90.47
2023-03-14T06:29:43.623Z,90.99
2023-03-14T06:32:46.411Z,90.04
2023-03-14T06:35:50.013Z,89.55
2023-03-14T06:38:52.691Z,89.80
2023-03-14T06:41:55.977Z,88.75
2023-03-14T06:44:58.978Z,89.49
2023-03-14T06:48:02.873Z,89.92
2023-03-14T06:51:07.492Z,87.54
2023-03-14T06:54:11.012Z,85.88
2023-03-14T06:57:13.970Z,83.32
2023-03-14T07:00:17.484Z,82.11
2023-03-14T07:03:20.170Z,81.66
2023-03-14T07:06:24.492Z,81.42
2023-03-14T07:09:27.412Z,81.38
2023-03-14T07:12:30.822Z,81.17
2023-03-14T07:15:33.600Z,80.38
2023-03-14T07:18:38.523Z,78.99
2023-03-14T07:21:41.408Z,80.21
2023-03-14T07:24:44.950Z,79.88
2023-03-14T07:27:49.218Z,80.13
2023-03-14T07:30:54.970Z,79.14
2023-03-14T07:33:58.444Z,77.79
2023-03-14T07:37:06.071Z,76.61
2023-03-14T07:40:11.671Z,74.14
2023-03-14T07:43:15.581Z,72.35
2023-03-14T07:46:21.439Z,72.91
2023-03-14T07:49:24.614Z,72.17
2023-03-14T07:52:27.542Z,71.38
2023-03-14T07:55:30.635Z,69.60
2023-03-14T07:58:34.100Z,67.83
2023-03-14T08:01:37.913Z,62.61
2023-03-14T08:04:41.354Z,57.35
2023-03-14T08:07:44.176Z,58.12
2023-03-14T08:10:48.415Z,59.57
2023-03-14T08:13:51.869Z,61.83
2023-03-14T08:16:54.720Z,62.72
2023-03-14T08:19:57.618Z,60.50
2023-03-14T08:23:01.862Z,59.79
2023-03-14T08:26:06.550Z,60.82
2023-03-14T08:29:13.933Z,61.60
2023-03-14T08:32:16.891Z,59.40
2023-03-14T08:35:21.234Z,59.26
2023-03-14T08:38:24.423Z,60.76
2023-03-14T08:41:27.433Z,60.70
2023-03-14T08:44:31.145Z,62.11
2023-03-14T08:47:34.573Z,61.89
2023-03-14T08:50:39.543Z,63.68
2023-03-14T08:53:43.296Z,64.58
2023-03-14T08:56:46.099Z,63.40
2023-03-14T08:59:49.131Z,62.15
2023-03-14T09:02:51.880Z,62.29
2023-03-14T09:05:55.746Z,61.88
2023-03-14T09:08:58.461Z,61.67
2023-03-14T09:12:01.608Z,62.29
2023-03-14T09:15:04.710Z,59.45
2023-03-14T09:18:07.546Z,58.81
2023-03-14T09:21:10.339Z,57.83
2023-03-14T09:24:13.924Z,56.19
2023-03-14T09:27:17.368Z,55.55
2023-03-14T09:30:20.599Z,55.09
2023-03-14T09:33:23.563Z,57.37
2023-03-14T09:36:26.540Z,56.08
2023-03-14T09:39:29.346Z,56.06
2023-03-14T09:42:32.270Z,56.16
2023-03-14T09:45:37.984Z,56.41
2023-03-14T09:48:41.873Z,55.06
2023-03-14T09:51:47.027Z,54.25
2023-03-14T09:55:05.527Z,56.11
2023-03-14T09:58:15.102Z,55.52
2023-03-14T10:01:23.529Z,54.55
2023-03-14T10:04:27.082Z,55.21
2023-03-14T10:07:32.007Z,55.31
2023-03-14T10:10:35.586Z,54.35
2023-03-14T10:14:04.098Z,55.12
2023-03-14T10:17:13.135Z,53.93
2023-03-14T10:20:35.846Z,54.20
2023-03-14T10:23:39.383Z,53.08
2023-03-14T10:26:42.210Z,53.88
2023-03-14T10:30:00.123Z,55.55
2023-03-14T10:33:30.643Z,56.93
2023-03-14T10:36:35.845Z,57.63
2023-03-14T10:39:43.395Z,58.54
2023-03-14T10:42:48.297Z,59.14
2023-03-14T10:45:59.146Z,58.60
2023-03-14T10:49:06.091Z,59.07
2023-03-14T10:52:35.645Z,58.78
2023-03-14T10:55:43.725Z,59.72
2023-03-14T10:58:51.330Z,61.07
2023-03-14T11:01:59.980Z,60.05
2023-03-14T11:05:12.754Z,60.30
2023-03-14T11:08:35.911Z,60.98
2023-03-14T11:11:40.944Z,60.93
2023-03-14T11:14:48.249Z,62.23
2023-03-14T11:17:59.822Z,63.25
2023-03-14T11:21:15.459Z,63.15
2023-03-14T11:24:28.027Z,63.11
2023-03-14T11:27:46.274Z,62.99
2023-03-14T11:30:55.350Z,63.01
2023-03-14T11:34:18.962Z,63.30
2023-03-14T11:37:33.546Z,63.56
2023-03-14T11:40:37.059Z,64.00
2023-03-14T11:43:43.797Z,63.44
2023-03-14T11:47:16.040Z,63.56
2023-03-14T11:50:29.640Z,62.67
2023-03-14T11:53:49.548Z,63.90
2023-03-14T11:56:56.615Z,65.56
2023-03-14T12:00:25.557Z,65.97
2023-03-14T12:04:03.828Z,66.23
2023-03-14T12:07:36.672Z,64.79
2023-03-14T12:10:39.838Z,64.92
2023-03-14T12:13:48.012Z,66.99
2023-03-14T12:16:58.134Z,68.84
2023-03-14T12:20:16.048Z,70.32
2023-03-14T12:23:18.962Z,69.71
2023-03-14T12:26:23.988Z,67.46
2023-03-14T12:29:26.845Z,68.49
2023-03-14T12:32:29.537Z,69.22
2023-03-14T12:35:42.823Z,68.91
2023-03-14T12:38:59.685Z,68.47
2023-03-14T12:42:16.592Z,68.30
2023-03-14T12:45:27.598Z,68.05
2023-03-14T12:48:30.644Z,69.71
2023-03-14T12:51:46.384Z,70.72
2023-03-14T12:54:49.496Z,71.78
2023-03-14T12:57:59.677Z,72.16
2023-03-14T13:01:07.013Z,73.97
2023-03-14T13:04:11.587Z,74.99
2023-03-14T13:07:37.156Z,76.25
2023-03-14T13:10:44.292Z,77.35
2023-03-14T13:13:50.029Z,78.32
2023-03-14T13:16:52.740Z,79.70
2023-03-14T13:19:58.258Z,81.10
2023-03-14T13:23:01.255Z,82.67
2023-03-14T13:26:11.140Z,83.89
2023-03-14T13:29:28.603Z,84.68
2023-03-14T13:32:31.695Z,85.27
2023-03-14T13:35:47.599Z,85.07
2023-03-14T13:38:57.882Z,86.22
2023-03-14T13:42:02.037Z,87.09
2023-03-14T13:45:06.735Z,87.28
2023-03-14T13:48:12.514Z,86.90
2023-03-14T13:51:19.721Z,86.84
2023-03-14T13:54:23.691Z,85.92
2023-03-14T13:57:27.180Z,83.84
2023-03-14T14:00:30.930Z,85.00
2023-03-14T14:03:38.759Z,84.83
2023-03-14T14:06:52.505Z,83.51
2023-03-14T14:09:56.237Z,83.38
2023-03-14T14:13:02.725Z,84.37
2023-03-14T14:16:06.233Z,83.88
2023-03-14T14:19:09.102Z,83.95
2023-03-14T14:22:12.657Z,83.73
2023-03-14T14:25:16.509Z,83.70
2023-03-14T14:28:31.569Z,84.62
2023-03-14T14:31:36.681Z,84.99
2023-03-14T14:35:04.303Z,84.98
2023-03-14T14:38:16.368Z,85.37
2023-03-14T14:41:20.312Z,86.11
2023-03-14T14:44:35.227Z,86.71
2023-03-14T14:48:19.019Z,87.19
2023-03-14T14:51:27.229Z,86.94
2023-03-14T14:54:55.503Z,87.14
2023-03-14T14:57:58.170Z,87.26
2023-03-14T15:01:25.119Z,87.69
2023-03-14T15:04:28.543Z,86.43
2023-03-14T15:07:31.408Z,86.82
2023-03-14T15:10:34.535Z,86.53
2023-03-14T15:13:37.591Z,86.83
2023-03-14T15:16:41.733Z,86.91
2023-03-14T15:19:44.811Z,87.75
2023-03-14T15:22:48.124Z,88.05
2023-03-14T15:25:56.056Z,88.25
2023-03-14T15:28:59.074Z,88.52
2023-03-14T15:32:02.058Z,88.90
2023-03-14T15:35:05.274Z,89.07
2023-03-14T15:38:17.723Z,89.17
2023-03-14T15:41:21.593Z,89.50
2023-03-14T15:44:24.585Z,89.53
2023-03-14T15:47:28.700Z,89.83
2023-03-14T15:50:32.197Z,90.15
2023-03-14T15:53:37.912Z,89.62
2023-03-14T15:56:41.136Z,89.25
2023-03-14T15:59:43.845Z,89.41
2023-03-14T16:02:46.959Z,89.42
2023-03-14T16:05:50.049Z,89.44
2023-03-14T16:08:52.639Z,89.78
2023-03-14T16:11:55.652Z,89.82
2023-03-14T16:14:58.186Z,90.16
2023-03-14T16:18:09.140Z,90.25
2023-03-14T16:21:19.592Z,90.32
2023-03-14T16:24:22.473Z,89.96
2023-03-14T16:27:25.078Z,89.73
2023-03-14T16:30:29.940Z,89.91
2023-03-14T16:33:33.684Z,89.94
2023-03-14T16:36:36.537Z,89.95
2023-03-14T16:40:01.121Z,89.94
2023-03-14T16:46:28.534Z,89.48
2023-03-14T16:49:31.761Z,89.63
2023-03-14T16:52:34.560Z,89.59
2023-03-14T16:55:42.657Z,89.98
2023-03-14T16:58:45.243Z,90.10
2023-03-14T17:01:50.041Z,90.21
2023-03-14T17:04:52.735Z,89.97
2023-03-14T17:07:55.559Z,89.72
2023-03-14T17:10:59.314Z,89.73
2023-03-14T17:14:03.786Z,89.47
2023-03-14T17:17:06.368Z,89.13
2023-03-14T17:20:10.220Z,89.22
2023-03-14T17:23:16.207Z,89.29
2023-03-14T17:26:19.784Z,89.90
2023-03-14T17:29:22.406Z,91.35
2023-03-14T17:32:26.425Z,91.50
2023-03-14T17:35:29.353Z,91.28
2023-03-14T17:38:36.950Z,91.41
2023-03-14T17:41:39.740Z,91.78
2023-03-14T17:44:42.779Z,91.93
2023-03-14T17:47:45.427Z,91.85
2023-03-14T17:50:49.024Z,91.77
2023-03-14T17:53:51.813Z,93.25
2023-03-14T17:56:56.692Z,92.20
2023-03-14T18:00:00.147Z,92.94
2023-03-14T18:03:04.217Z,92.95
2023-03-14T18:06:11.018Z,92.30
2023-03-14T18:09:14.240Z,92.45
2023-03-14T18:12:17.121Z,92.44
2023-03-14T18:15:20.102Z,92.65
2023-03-14T18:18:23.305Z,92.50
2023-03-14T18:21:29.741Z,92.50
2023-03-14T18:24:33.194Z,93.54
2023-03-14T18:27:37.170Z,93.11
2023-03-14T18:30:41.711Z,94.75
2023-03-14T18:33:45.580Z,93.56
2023-03-14T18:36:48.709Z,94.11
2023-03-14T18:39:51.553Z,95.27
2023-03-14T18:42:55.246Z,95.47
2023-03-14T18:45:59.022Z,96.05
2023-03-14T18:49:04.212Z,98.54
2023-03-14T18:52:07.818Z,97.60
2023-03-14T18:55:11.214Z,98.83
2023-03-14T18:58:14.320Z,100.00
2023-03-14T19:01:17.868Z,100.00
2023-03-14T19:04:21.005Z,100.00
2023-03-14T19:07:24.223Z,100.00
2023-03-14T19:10:27.977Z,100.00
2023-03-14T19:13:32.646Z,100.00
2023-03-14T19:16:36.105Z,100.00
2023-03-14T19:19:40.024Z,100.00
2023-03-14T19:22:43.471Z,100.00
2023-03-14T19:25:48.445Z,100.00
2023-03-14T19:28:55.030Z,100.00
2023-03-14T19:31:58.820Z,100.00
2023-03-14T19:35:01.837Z,100.00
2023-03-14T19:38:05.097Z,100.00
2023-03-14T19:41:08.010Z,100.00
2023-03-14T19:44:13.168Z,100.00
2023-03-14T19:47:16.968Z,100.00
2023-03-14T19:50:20.895Z,100.00
2023-03-14T19:53:23.976Z,100.00
2023-03-14T19:56:26.974Z,100.00
2023-03-14T19:59:30.279Z,100.00
2023-03-14T20:02:33.480Z,100.00
2023-03-14T20:05:39.588Z,100.00
2023-03-14T20:08:43.709Z,100.00
2023-03-14T20:11:47.044Z,100.00
2023-03-14T20:14:49.934Z,100.00
2023-03-14T20:17:53.944Z,100.00
2023-03-14T20:20:59.586Z,100.00
2023-03-14T20:24:03.402Z,100.00
2023-03-14T20:27:06.300Z,100.00
2023-03-14T20:30:13.036Z,99.58
2023-03-14T20:33:19.962Z,97.36
2023-03-14T20:36:23.815Z,95.62
2023-03-14T20:39:26.644Z,93.18
2023-03-14T20:42:29.737Z,91.21
2023-03-14T20:45:32.475Z,90.44
2023-03-14T20:48:36.017Z,88.12
2023-03-14T20:51:38.992Z,86.52
2023-03-14T20:54:42.323Z,85.89
2023-03-14T20:57:44.875Z,86.76
2023-03-14T21:00:53.049Z,86.95
2023-03-14T21:03:56.108Z,87.19
2023-03-14T21:06:58.918Z,86.95
2023-03-14T21:10:02.187Z,86.52
2023-03-14T21:13:05.058Z,86.58
2023-03-14T21:16:07.842Z,86.38
2023-03-14T21:19:11.694Z,86.05
2023-03-14T21:22:18.568Z,83.44
2023-03-14T21:25:21.855Z,82.54
2023-03-14T21:28:24.533Z,82.08
2023-03-14T21:31:28.292Z,81.90
2023-03-14T21:34:31.174Z,81.37
2023-03-14T21:37:34.000Z,81.88
2023-03-14T21:40:38.390Z,79.00
2023-03-14T21:43:44.023Z,76.77
2023-03-14T21:46:46.911Z,77.28
2023-03-14T21:49:51.150Z,75.47
2023-03-14T21:52:56.975Z,74.14
2023-03-14T21:56:00.483Z,73.04
2023-03-14T21:59:03.677Z,70.91
2023-03-14T22:02:12.049Z,71.61
2023-03-14T22:05:16.453Z,71.55
2023-03-14T22:08:20.678Z,71.34
2023-03-14T22:11:24.365Z,72.10
2023-03-14T22:14:27.331Z,72.75
2023-03-14T22:17:30.475Z,72.83
2023-03-14T22:20:35.641Z,74.14
2023-03-14T22:23:38.734Z,74.39
2023-03-14T22:26:41.595Z,74.92
2023-03-14T22:29:44.534Z,74.98
2023-03-14T22:32:47.233Z,75.15
2023-03-14T22:35:51.875Z,75.54
2023-03-14T22:38:54.636Z,75.71
2023-03-14T22:41:57.416Z,75.06
2023-03-14T22:44:59.896Z,74.71
2023-03-14T22:48:02.674Z,74.18
2023-03-14T22:51:11.073Z,73.75
2023-03-14T22:54:13.834Z,73.13
2023-03-14T22:57:16.314Z,72.49
2023-03-14T23:00:21.097Z,71.94
2023-03-14T23:03:24.137Z,72.10
2023-03-14T23:06:27.342Z,71.66
2023-03-14T23:09:29.942Z,71.00
2023-03-14T23:12:33.796Z,70.47
2023-03-14T23:15:36.714Z,69.52
2023-03-14T23:18:41.618Z,68.91
2023-03-14T23:21:44.515Z,67.83
2023-03-14T23:24:48.712Z,68.00
2023-03-14T23:27:54.168Z,67.73
2023-03-14T23:30:58.380Z,66.62
2023-03-14T23:34:02.007Z,66.67
2023-03-14T23:37:05.045Z,66.52
2023-03-14T23:40:08.375Z,66.44
2023-03-14T23:43:12.561Z,66.58
2023-03-14T23:46:16.602Z,65.84
2023-03-14T23:49:20.144Z,65.18
2023-03-14T23:52:22.918Z,64.59
2023-03-14T23:55:25.864Z,64.44
2023-03-14T23:58:29.453Z,64.16
